sensor_id;sensor_type;location;lat;lon;timestamp;P1;durP1;ratioP1;P2;durP2;ratioP2
18917;SDS011;9591;52.742;13.650;2024-01-15T00:00:40;14.63;;;6.60;;
18917;SDS011;9591;52.742;13.650;2024-01-15T00:03:29;14.23;;;6.00;;
18917;SDS011;9591;52.742;13.650;2024-01-15T00:06:18;14.37;;;6.27;;
18917;SDS011;9591;52.742;13.650;2024-01-15T00:09:05;15.63;;;6.13;;
18917;SDS011;9591;52.742;13.650;2024-01-15T00:12:18;16.47;;;7.20;;
18917;SDS011;9591;52.742;13.650;2024-01-15T00:15:06;16.63;;;6.13;;
18917;SDS011;9591;52.742;13.650;2024-01-15T00:17:59;15.07;;;7.37;;
18917;SDS011;9591;52.742;13.650;2024-01-15T00:20:49;11.50;;;5.70;;
18917;SDS011;9591;52.742;13.650;2024-01-15T00:23:36;13.57;;;6.37;;
18917;SDS011;9591;52.742;13.650;2024-01-15T00:26:25;7.43;;;4.07;;
18917;SDS011;9591;52.742;13.650;2024-01-15T00:29:12;12.47;;;6.13;;
18917;SDS011;9591;52.742;13.650;2024-01-15T00:32:01;11.83;;;6.67;;
18917;SDS011;9591;52.742;13.650;2024-01-15T00:34:56;13.67;;;5.23;;
18917;SDS011;9591;52.742;13.650;2024-01-15T00:37:44;9.93;;;5.73;;
18917;SDS011;9591;52.742;13.650;2024-01-15T00:40:30;12.77;;;5.87;;
18917;SDS011;9591;52.742;13.650;2024-01-15T00:43:20;15.00;;;6.77;;
18917;SDS011;9591;52.742;13.650;2024-01-15T00:46:14;8.97;;;5.27;;
18917;SDS011;9591;52.742;13.650;2024-01-15T00:49:04;10.37;;;5.37;;
18917;SDS011;9591;52.742;13.650;2024-01-15T00:51:53;16.70;;;7.10;;
18917;SDS011;9591;52.742;13.650;2024-01-15T00:54:40;13.97;;;6.73;;
18917;SDS011;9591;52.742;13.650;2024-01-15T00:57:27;8.83;;;4.87;;
18917;SDS011;9591;52.742;13.650;2024-01-15T01:00:16;14.67;;;6.90;;
18917;SDS011;9591;52.742;13.650;2024-01-15T01:03:04;14.27;;;6.93;;
18917;SDS011;9591;52.742;13.650;2024-01-15T01:05:52;11.17;;;5.77;;
18917;SDS011;9591;52.742;13.650;2024-01-15T01:08:45;13.77;;;6.03;;
18917;SDS011;9591;52.742;13.650;2024-01-15T01:11:32;12.80;;;6.23;;
18917;SDS011;9591;52.742;13.650;2024-01-15T01:14:20;11.07;;;4.97;;
18917;SDS011;9591;52.742;13.650;2024-01-15T01:17:06;12.87;;;6.13;;
18917;SDS011;9591;52.742;13.650;2024-01-15T01:19:56;5.50;;;2.43;;
18917;SDS011;9591;52.742;13.650;2024-01-15T01:22:48;8.97;;;4.37;;
18917;SDS011;9591;52.742;13.650;2024-01-15T01:25:38;13.57;;;5.70;;
18917;SDS011;9591;52.742;13.650;2024-01-15T01:28:27;12.63;;;6.00;;
18917;SDS011;9591;52.742;13.650;2024-01-15T01:31:14;11.00;;;4.93;;
18917;SDS011;9591;52.742;13.650;2024-01-15T01:34:04;10.33;;;4.97;;
18917;SDS011;9591;52.742;13.650;2024-01-15T01:36:53;7.10;;;4.37;;
18917;SDS011;9591;52.742;13.650;2024-01-15T01:39:40;9.63;;;4.87;;
18917;SDS011;9591;52.742;13.650;2024-01-15T01:42:32;8.17;;;4.93;;
18917;SDS011;9591;52.742;13.650;2024-01-15T01:45:19;7.70;;;4.50;;
18917;SDS011;9591;52.742;13.650;2024-01-15T01:48:06;8.63;;;4.77;;
18917;SDS011;9591;52.742;13.650;2024-01-15T01:50:58;8.27;;;4.67;;
18917;SDS011;9591;52.742;13.650;2024-01-15T01:53:51;11.67;;;4.80;;
18917;SDS011;9591;52.742;13.650;2024-01-15T01:56:40;10.97;;;4.63;;
18917;SDS011;9591;52.742;13.650;2024-01-15T01:59:34;12.80;;;5.20;;
18917;SDS011;9591;52.742;13.650;2024-01-15T02:02:25;12.77;;;5.60;;
18917;SDS011;9591;52.742;13.650;2024-01-15T02:05:13;11.87;;;5.30;;
18917;SDS011;9591;52.742;13.650;2024-01-15T02:08:12;10.60;;;4.87;;
18917;SDS011;9591;52.742;13.650;2024-01-15T02:11:00;11.23;;;5.10;;
18917;SDS011;9591;52.742;13.650;2024-01-15T02:13:49;11.67;;;4.87;;
18917;SDS011;9591;52.742;13.650;2024-01-15T02:16:43;8.50;;;4.57;;
18917;SDS011;9591;52.742;13.650;2024-01-15T02:19:30;8.70;;;4.67;;
18917;SDS011;9591;52.742;13.650;2024-01-15T02:22:19;6.97;;;4.57;;
18917;SDS011;9591;52.742;13.650;2024-01-15T02:25:11;13.27;;;4.73;;
18917;SDS011;9591;52.742;13.650;2024-01-15T02:28:02;10.80;;;3.90;;
18917;SDS011;9591;52.742;13.650;2024-01-15T02:30:50;6.87;;;4.13;;
18917;SDS011;9591;52.742;13.650;2024-01-15T02:33:40;7.93;;;4.03;;
18917;SDS011;9591;52.742;13.650;2024-01-15T02:36:38;11.00;;;4.40;;
18917;SDS011;9591;52.742;13.650;2024-01-15T02:39:27;13.17;;;4.97;;
18917;SDS011;9591;52.742;13.650;2024-01-15T02:42:16;9.70;;;5.03;;
18917;SDS011;9591;52.742;13.650;2024-01-15T02:45:06;9.90;;;4.20;;
18917;SDS011;9591;52.742;13.650;2024-01-15T02:47:56;8.73;;;4.40;;
18917;SDS011;9591;52.742;13.650;2024-01-15T02:50:45;8.10;;;4.00;;
18917;SDS011;9591;52.742;13.650;2024-01-15T02:53:36;8.80;;;4.60;;
18917;SDS011;9591;52.742;13.650;2024-01-15T02:56:27;8.10;;;4.70;;
18917;SDS011;9591;52.742;13.650;2024-01-15T02:59:20;5.67;;;3.17;;
18917;SDS011;9591;52.742;13.650;2024-01-15T03:02:11;10.80;;;5.13;;
18917;SDS011;9591;52.742;13.650;2024-01-15T03:04:58;6.63;;;2.80;;
18917;SDS011;9591;52.742;13.650;2024-01-15T03:07:48;9.53;;;4.57;;
18917;SDS011;9591;52.742;13.650;2024-01-15T03:10:37;9.63;;;3.93;;
18917;SDS011;9591;52.742;13.650;2024-01-15T03:13:26;9.57;;;4.70;;
18917;SDS011;9591;52.742;13.650;2024-01-15T03:16:17;8.93;;;4.33;;
18917;SDS011;9591;52.742;13.650;2024-01-15T03:19:05;6.00;;;3.37;;
18917;SDS011;9591;52.742;13.650;2024-01-15T03:21:52;6.50;;;4.03;;
18917;SDS011;9591;52.742;13.650;2024-01-15T03:24:40;2.07;;;1.93;;
18917;SDS011;9591;52.742;13.650;2024-01-15T03:27:27;6.97;;;4.00;;
18917;SDS011;9591;52.742;13.650;2024-01-15T03:30:15;6.23;;;4.23;;
18917;SDS011;9591;52.742;13.650;2024-01-15T03:33:08;11.83;;;5.70;;
18917;SDS011;9591;52.742;13.650;2024-01-15T03:35:55;12.23;;;3.57;;
18917;SDS011;9591;52.742;13.650;2024-01-15T03:38:43;7.03;;;4.27;;
18917;SDS011;9591;52.742;13.650;2024-01-15T03:41:32;7.47;;;3.93;;
18917;SDS011;9591;52.742;13.650;2024-01-15T03:44:19;4.73;;;3.57;;
18917;SDS011;9591;52.742;13.650;2024-01-15T03:47:08;5.93;;;3.23;;
18917;SDS011;9591;52.742;13.650;2024-01-15T03:49:59;4.87;;;1.90;;
18917;SDS011;9591;52.742;13.650;2024-01-15T03:52:49;7.40;;;4.43;;
18917;SDS011;9591;52.742;13.650;2024-01-15T03:55:36;7.60;;;3.40;;
18917;SDS011;9591;52.742;13.650;2024-01-15T03:58:25;9.20;;;4.13;;
18917;SDS011;9591;52.742;13.650;2024-01-15T04:01:17;7.47;;;3.47;;
18917;SDS011;9591;52.742;13.650;2024-01-15T04:04:07;7.93;;;3.23;;
18917;SDS011;9591;52.742;13.650;2024-01-15T04:07:04;8.90;;;3.47;;
18917;SDS011;9591;52.742;13.650;2024-01-15T04:09:51;10.40;;;3.43;;
18917;SDS011;9591;52.742;13.650;2024-01-15T04:12:38;11.20;;;3.37;;
18917;SDS011;9591;52.742;13.650;2024-01-15T04:15:27;6.17;;;3.37;;
18917;SDS011;9591;52.742;13.650;2024-01-15T04:18:16;6.43;;;2.83;;
18917;SDS011;9591;52.742;13.650;2024-01-15T04:21:06;6.30;;;3.17;;
18917;SDS011;9591;52.742;13.650;2024-01-15T04:23:57;10.47;;;3.67;;
18917;SDS011;9591;52.742;13.650;2024-01-15T04:26:44;7.57;;;2.97;;
18917;SDS011;9591;52.742;13.650;2024-01-15T04:29:31;4.73;;;3.17;;
18917;SDS011;9591;52.742;13.650;2024-01-15T04:32:25;6.03;;;3.50;;
18917;SDS011;9591;52.742;13.650;2024-01-15T04:35:14;12.67;;;3.27;;
18917;SDS011;9591;52.742;13.650;2024-01-15T04:38:03;7.17;;;4.90;;
18917;SDS011;9591;52.742;13.650;2024-01-15T04:40:54;7.07;;;3.37;;
18917;SDS011;9591;52.742;13.650;2024-01-15T04:43:43;7.43;;;3.87;;
18917;SDS011;9591;52.742;13.650;2024-01-15T04:46:32;4.10;;;2.30;;
18917;SDS011;9591;52.742;13.650;2024-01-15T04:49:21;3.57;;;2.27;;
18917;SDS011;9591;52.742;13.650;2024-01-15T04:52:13;6.07;;;3.40;;
18917;SDS011;9591;52.742;13.650;2024-01-15T04:55:09;7.97;;;2.90;;
18917;SDS011;9591;52.742;13.650;2024-01-15T04:57:58;4.00;;;3.10;;
18917;SDS011;9591;52.742;13.650;2024-01-15T05:01:24;5.43;;;2.63;;
18917;SDS011;9591;52.742;13.650;2024-01-15T05:04:12;5.03;;;2.70;;
18917;SDS011;9591;52.742;13.650;2024-01-15T05:07:22;5.97;;;2.27;;
18917;SDS011;9591;52.742;13.650;2024-01-15T05:10:11;5.50;;;2.63;;
18917;SDS011;9591;52.742;13.650;2024-01-15T05:13:02;6.97;;;2.43;;
18917;SDS011;9591;52.742;13.650;2024-01-15T05:15:50;4.97;;;2.80;;
18917;SDS011;9591;52.742;13.650;2024-01-15T05:18:38;8.60;;;2.50;;
18917;SDS011;9591;52.742;13.650;2024-01-15T05:21:29;4.87;;;2.10;;
18917;SDS011;9591;52.742;13.650;2024-01-15T05:24:18;7.57;;;2.43;;
18917;SDS011;9591;52.742;13.650;2024-01-15T05:27:08;6.37;;;3.07;;
18917;SDS011;9591;52.742;13.650;2024-01-15T05:29:59;4.60;;;2.13;;
18917;SDS011;9591;52.742;13.650;2024-01-15T05:32:46;5.73;;;2.77;;
18917;SDS011;9591;52.742;13.650;2024-01-15T05:35:34;3.60;;;1.70;;
18917;SDS011;9591;52.742;13.650;2024-01-15T05:38:21;2.00;;;1.90;;
18917;SDS011;9591;52.742;13.650;2024-01-15T05:41:10;3.03;;;2.20;;
18917;SDS011;9591;52.742;13.650;2024-01-15T05:43:57;11.00;;;3.17;;
18917;SDS011;9591;52.742;13.650;2024-01-15T05:46:50;7.00;;;2.90;;
18917;SDS011;9591;52.742;13.650;2024-01-15T05:49:40;4.30;;;2.07;;
18917;SDS011;9591;52.742;13.650;2024-01-15T05:52:27;2.17;;;1.97;;
18917;SDS011;9591;52.742;13.650;2024-01-15T05:55:14;7.00;;;2.90;;
18917;SDS011;9591;52.742;13.650;2024-01-15T05:58:01;9.53;;;2.47;;
18917;SDS011;9591;52.742;13.650;2024-01-15T06:00:50;7.80;;;2.53;;
18917;SDS011;9591;52.742;13.650;2024-01-15T06:03:39;4.97;;;1.80;;
18917;SDS011;9591;52.742;13.650;2024-01-15T06:06:26;5.17;;;2.80;;
18917;SDS011;9591;52.742;13.650;2024-01-15T06:09:13;4.20;;;2.10;;
18917;SDS011;9591;52.742;13.650;2024-01-15T06:12:00;7.67;;;2.30;;
18917;SDS011;9591;52.742;13.650;2024-01-15T06:14:47;2.53;;;1.83;;
18917;SDS011;9591;52.742;13.650;2024-01-15T06:17:36;3.87;;;2.47;;
18917;SDS011;9591;52.742;13.650;2024-01-15T06:20:35;9.73;;;1.90;;
18917;SDS011;9591;52.742;13.650;2024-01-15T06:23:26;3.73;;;2.03;;
18917;SDS011;9591;52.742;13.650;2024-01-15T06:26:13;5.67;;;2.90;;
18917;SDS011;9591;52.742;13.650;2024-01-15T06:29:02;1.63;;;1.53;;
18917;SDS011;9591;52.742;13.650;2024-01-15T06:31:54;2.70;;;1.93;;
18917;SDS011;9591;52.742;13.650;2024-01-15T06:34:42;4.23;;;1.90;;
18917;SDS011;9591;52.742;13.650;2024-01-15T06:37:34;2.77;;;1.90;;
18917;SDS011;9591;52.742;13.650;2024-01-15T06:40:21;2.00;;;1.67;;
18917;SDS011;9591;52.742;13.650;2024-01-15T06:43:08;3.60;;;1.77;;
18917;SDS011;9591;52.742;13.650;2024-01-15T06:45:59;5.17;;;2.20;;
18917;SDS011;9591;52.742;13.650;2024-01-15T06:48:53;3.37;;;1.73;;
18917;SDS011;9591;52.742;13.650;2024-01-15T06:51:40;6.97;;;1.67;;
18917;SDS011;9591;52.742;13.650;2024-01-15T06:57:48;6.03;;;2.00;;
18917;SDS011;9591;52.742;13.650;2024-01-15T07:00:37;3.90;;;1.73;;
18917;SDS011;9591;52.742;13.650;2024-01-15T07:03:31;1.53;;;1.43;;
18917;SDS011;9591;52.742;13.650;2024-01-15T07:06:19;4.80;;;2.13;;
18917;SDS011;9591;52.742;13.650;2024-01-15T07:09:06;4.83;;;1.90;;
18917;SDS011;9591;52.742;13.650;2024-01-15T07:11:56;1.93;;;1.73;;
18917;SDS011;9591;52.742;13.650;2024-01-15T07:14:43;2.00;;;1.70;;
18917;SDS011;9591;52.742;13.650;2024-01-15T07:24:29;4.27;;;1.70;;
18917;SDS011;9591;52.742;13.650;2024-01-15T07:27:23;2.20;;;1.90;;
18917;SDS011;9591;52.742;13.650;2024-01-15T07:30:10;2.07;;;1.97;;
18917;SDS011;9591;52.742;13.650;2024-01-15T07:32:58;4.63;;;1.50;;
18917;SDS011;9591;52.742;13.650;2024-01-15T07:35:45;6.47;;;1.93;;
18917;SDS011;9591;52.742;13.650;2024-01-15T07:38:32;9.00;;;2.27;;
18917;SDS011;9591;52.742;13.650;2024-01-15T07:44:32;3.70;;;1.93;;
18917;SDS011;9591;52.742;13.650;2024-01-15T07:47:18;3.10;;;1.83;;
18917;SDS011;9591;52.742;13.650;2024-01-15T07:50:05;1.67;;;1.67;;
18917;SDS011;9591;52.742;13.650;2024-01-15T07:52:57;7.17;;;1.90;;
18917;SDS011;9591;52.742;13.650;2024-01-15T07:55:44;1.90;;;1.80;;
18917;SDS011;9591;52.742;13.650;2024-01-15T07:58:31;3.63;;;1.83;;
18917;SDS011;9591;52.742;13.650;2024-01-15T08:01:19;1.87;;;1.60;;
18917;SDS011;9591;52.742;13.650;2024-01-15T08:04:07;16.70;;;3.90;;
18917;SDS011;9591;52.742;13.650;2024-01-15T08:06:57;11.17;;;2.30;;
18917;SDS011;9591;52.742;13.650;2024-01-15T08:09:46;2.33;;;1.67;;
18917;SDS011;9591;52.742;13.650;2024-01-15T08:12:41;7.27;;;2.07;;
18917;SDS011;9591;52.742;13.650;2024-01-15T08:15:27;4.17;;;1.63;;
18917;SDS011;9591;52.742;13.650;2024-01-15T08:18:23;5.60;;;2.27;;
18917;SDS011;9591;52.742;13.650;2024-01-15T08:21:11;5.03;;;2.13;;
18917;SDS011;9591;52.742;13.650;2024-01-15T08:23:58;7.70;;;2.50;;
18917;SDS011;9591;52.742;13.650;2024-01-15T08:26:45;6.40;;;1.90;;
18917;SDS011;9591;52.742;13.650;2024-01-15T08:29:33;5.97;;;2.07;;
18917;SDS011;9591;52.742;13.650;2024-01-15T08:32:20;3.80;;;1.87;;
18917;SDS011;9591;52.742;13.650;2024-01-15T08:35:18;6.77;;;2.17;;
18917;SDS011;9591;52.742;13.650;2024-01-15T08:38:12;4.03;;;2.23;;
18917;SDS011;9591;52.742;13.650;2024-01-15T08:40:59;11.13;;;2.40;;
18917;SDS011;9591;52.742;13.650;2024-01-15T08:46:59;8.17;;;2.00;;
18917;SDS011;9591;52.742;13.650;2024-01-15T08:49:46;5.07;;;2.20;;
18917;SDS011;9591;52.742;13.650;2024-01-15T08:52:37;9.87;;;2.23;;
18917;SDS011;9591;52.742;13.650;2024-01-15T08:55:24;5.53;;;1.93;;
18917;SDS011;9591;52.742;13.650;2024-01-15T08:58:15;5.77;;;1.93;;
18917;SDS011;9591;52.742;13.650;2024-01-15T09:01:06;4.20;;;2.10;;
18917;SDS011;9591;52.742;13.650;2024-01-15T09:03:56;10.27;;;2.57;;
18917;SDS011;9591;52.742;13.650;2024-01-15T09:06:44;9.10;;;2.43;;
18917;SDS011;9591;52.742;13.650;2024-01-15T09:09:36;4.27;;;1.87;;
18917;SDS011;9591;52.742;13.650;2024-01-15T09:12:23;3.87;;;2.07;;
18917;SDS011;9591;52.742;13.650;2024-01-15T09:15:12;4.57;;;2.03;;
18917;SDS011;9591;52.742;13.650;2024-01-15T09:18:00;3.77;;;2.07;;
18917;SDS011;9591;52.742;13.650;2024-01-15T09:20:58;5.33;;;2.07;;
18917;SDS011;9591;52.742;13.650;2024-01-15T09:23:46;4.70;;;1.97;;
18917;SDS011;9591;52.742;13.650;2024-01-15T09:26:39;5.33;;;1.77;;
18917;SDS011;9591;52.742;13.650;2024-01-15T09:29:26;2.23;;;1.67;;
18917;SDS011;9591;52.742;13.650;2024-01-15T09:35:27;9.63;;;1.80;;
18917;SDS011;9591;52.742;13.650;2024-01-15T09:38:16;3.57;;;1.67;;
18917;SDS011;9591;52.742;13.650;2024-01-15T09:41:05;3.40;;;1.80;;
18917;SDS011;9591;52.742;13.650;2024-01-15T09:43:58;9.80;;;2.13;;
18917;SDS011;9591;52.742;13.650;2024-01-15T09:46:46;8.53;;;1.80;;
18917;SDS011;9591;52.742;13.650;2024-01-15T09:49:36;11.10;;;2.13;;
18917;SDS011;9591;52.742;13.650;2024-01-15T09:52:26;5.87;;;1.97;;
18917;SDS011;9591;52.742;13.650;2024-01-15T09:55:13;2.17;;;1.23;;
18917;SDS011;9591;52.742;13.650;2024-01-15T09:58:05;5.07;;;1.93;;
18917;SDS011;9591;52.742;13.650;2024-01-15T10:00:54;2.60;;;1.90;;
18917;SDS011;9591;52.742;13.650;2024-01-15T10:03:44;2.87;;;1.90;;
18917;SDS011;9591;52.742;13.650;2024-01-15T10:06:37;12.47;;;1.80;;
18917;SDS011;9591;52.742;13.650;2024-01-15T10:09:35;9.30;;;2.30;;
18917;SDS011;9591;52.742;13.650;2024-01-15T10:12:25;6.83;;;2.07;;
18917;SDS011;9591;52.742;13.650;2024-01-15T10:15:14;4.73;;;1.73;;
18917;SDS011;9591;52.742;13.650;2024-01-15T10:18:05;7.47;;;1.50;;
18917;SDS011;9591;52.742;13.650;2024-01-15T10:20:52;5.33;;;2.10;;
18917;SDS011;9591;52.742;13.650;2024-01-15T10:23:44;7.10;;;1.70;;
18917;SDS011;9591;52.742;13.650;2024-01-15T10:26:32;4.93;;;1.83;;
18917;SDS011;9591;52.742;13.650;2024-01-15T10:29:18;4.37;;;1.50;;
18917;SDS011;9591;52.742;13.650;2024-01-15T10:32:08;2.47;;;1.43;;
18917;SDS011;9591;52.742;13.650;2024-01-15T10:34:57;3.70;;;1.63;;
18917;SDS011;9591;52.742;13.650;2024-01-15T10:37:47;2.23;;;1.23;;
18917;SDS011;9591;52.742;13.650;2024-01-15T10:40:36;1.20;;;1.10;;
18917;SDS011;9591;52.742;13.650;2024-01-15T10:43:24;6.87;;;2.10;;
18917;SDS011;9591;52.742;13.650;2024-01-15T10:46:14;2.93;;;1.77;;
18917;SDS011;9591;52.742;13.650;2024-01-15T10:49:04;1.27;;;1.20;;
18917;SDS011;9591;52.742;13.650;2024-01-15T10:51:53;2.73;;;1.70;;
18917;SDS011;9591;52.742;13.650;2024-01-15T10:54:53;4.63;;;1.90;;
18917;SDS011;9591;52.742;13.650;2024-01-15T10:57:42;3.13;;;1.60;;
18917;SDS011;9591;52.742;13.650;2024-01-15T11:00:36;4.50;;;1.80;;
18917;SDS011;9591;52.742;13.650;2024-01-15T11:03:24;1.50;;;1.50;;
18917;SDS011;9591;52.742;13.650;2024-01-15T11:06:16;4.77;;;1.70;;
18917;SDS011;9591;52.742;13.650;2024-01-15T11:09:10;3.03;;;2.03;;
18917;SDS011;9591;52.742;13.650;2024-01-15T11:12:09;2.70;;;1.33;;
18917;SDS011;9591;52.742;13.650;2024-01-15T11:15:01;3.87;;;1.40;;
18917;SDS011;9591;52.742;13.650;2024-01-15T11:17:59;3.53;;;1.13;;
18917;SDS011;9591;52.742;13.650;2024-01-15T11:24:35;3.03;;;1.80;;
18917;SDS011;9591;52.742;13.650;2024-01-15T11:27:38;9.60;;;1.70;;
18917;SDS011;9591;52.742;13.650;2024-01-15T11:30:28;3.50;;;1.47;;
18917;SDS011;9591;52.742;13.650;2024-01-15T11:33:34;3.13;;;1.30;;
18917;SDS011;9591;52.742;13.650;2024-01-15T11:39:52;4.03;;;1.60;;
18917;SDS011;9591;52.742;13.650;2024-01-15T11:42:51;2.33;;;1.53;;
18917;SDS011;9591;52.742;13.650;2024-01-15T11:45:44;4.80;;;1.47;;
18917;SDS011;9591;52.742;13.650;2024-01-15T11:48:40;3.50;;;1.60;;
18917;SDS011;9591;52.742;13.650;2024-01-15T11:51:40;1.53;;;1.43;;
18917;SDS011;9591;52.742;13.650;2024-01-15T11:54:33;6.07;;;1.43;;
18917;SDS011;9591;52.742;13.650;2024-01-15T11:57:33;1.60;;;1.43;;
18917;SDS011;9591;52.742;13.650;2024-01-15T12:00:30;1.00;;;1.00;;
18917;SDS011;9591;52.742;13.650;2024-01-15T12:03:22;4.13;;;1.10;;
18917;SDS011;9591;52.742;13.650;2024-01-15T12:06:16;3.13;;;1.60;;
18917;SDS011;9591;52.742;13.650;2024-01-15T12:09:05;1.50;;;1.40;;
18917;SDS011;9591;52.742;13.650;2024-01-15T12:12:03;2.37;;;1.40;;
18917;SDS011;9591;52.742;13.650;2024-01-15T12:15:07;1.60;;;1.30;;
18917;SDS011;9591;52.742;13.650;2024-01-15T12:18:21;1.50;;;1.40;;
18917;SDS011;9591;52.742;13.650;2024-01-15T12:21:11;1.20;;;1.03;;
18917;SDS011;9591;52.742;13.650;2024-01-15T12:23:58;1.70;;;1.10;;
18917;SDS011;9591;52.742;13.650;2024-01-15T12:26:48;0.90;;;0.90;;
18917;SDS011;9591;52.742;13.650;2024-01-15T12:29:35;1.20;;;1.20;;
18917;SDS011;9591;52.742;13.650;2024-01-15T12:32:30;1.47;;;1.13;;
18917;SDS011;9591;52.742;13.650;2024-01-15T12:38:59;2.43;;;1.33;;
18917;SDS011;9591;52.742;13.650;2024-01-15T12:41:49;1.07;;;1.07;;
18917;SDS011;9591;52.742;13.650;2024-01-15T12:44:36;1.27;;;1.27;;
18917;SDS011;9591;52.742;13.650;2024-01-15T12:47:27;1.17;;;1.10;;
18917;SDS011;9591;52.742;13.650;2024-01-15T12:50:25;3.27;;;1.20;;
18917;SDS011;9591;52.742;13.650;2024-01-15T12:53:15;1.00;;;1.00;;
18917;SDS011;9591;52.742;13.650;2024-01-15T12:56:09;1.20;;;1.20;;
18917;SDS011;9591;52.742;13.650;2024-01-15T12:58:56;0.80;;;0.80;;
18917;SDS011;9591;52.742;13.650;2024-01-15T13:01:46;1.17;;;1.17;;
18917;SDS011;9591;52.742;13.650;2024-01-15T13:04:38;1.30;;;1.30;;
18917;SDS011;9591;52.742;13.650;2024-01-15T13:07:27;1.30;;;1.20;;
18917;SDS011;9591;52.742;13.650;2024-01-15T13:10:22;1.90;;;1.17;;
18917;SDS011;9591;52.742;13.650;2024-01-15T13:13:11;3.07;;;1.30;;
18917;SDS011;9591;52.742;13.650;2024-01-15T13:15:58;1.17;;;1.17;;
18917;SDS011;9591;52.742;13.650;2024-01-15T13:18:47;1.53;;;1.00;;
18917;SDS011;9591;52.742;13.650;2024-01-15T13:21:40;1.20;;;1.20;;
18917;SDS011;9591;52.742;13.650;2024-01-15T13:24:29;2.33;;;1.27;;
18917;SDS011;9591;52.742;13.650;2024-01-15T13:27:25;2.03;;;1.47;;
18917;SDS011;9591;52.742;13.650;2024-01-15T13:30:15;1.23;;;1.10;;
18917;SDS011;9591;52.742;13.650;2024-01-15T13:33:03;0.90;;;0.90;;
18917;SDS011;9591;52.742;13.650;2024-01-15T13:35:53;1.63;;;1.50;;
18917;SDS011;9591;52.742;13.650;2024-01-15T13:38:42;2.10;;;1.90;;
18917;SDS011;9591;52.742;13.650;2024-01-15T13:41:35;1.23;;;1.10;;
18917;SDS011;9591;52.742;13.650;2024-01-15T13:44:27;1.80;;;1.70;;
18917;SDS011;9591;52.742;13.650;2024-01-15T13:47:14;1.40;;;1.40;;
18917;SDS011;9591;52.742;13.650;2024-01-15T13:50:01;1.50;;;1.40;;
18917;SDS011;9591;52.742;13.650;2024-01-15T13:52:48;3.63;;;1.40;;
18917;SDS011;9591;52.742;13.650;2024-01-15T13:55:35;3.63;;;1.27;;
18917;SDS011;9591;52.742;13.650;2024-01-15T13:58:28;1.77;;;1.67;;
18917;SDS011;9591;52.742;13.650;2024-01-15T14:01:15;1.27;;;1.17;;
18917;SDS011;9591;52.742;13.650;2024-01-15T14:04:06;1.67;;;1.47;;
18917;SDS011;9591;52.742;13.650;2024-01-15T14:06:56;1.40;;;1.40;;
18917;SDS011;9591;52.742;13.650;2024-01-15T14:09:43;1.40;;;1.40;;
18917;SDS011;9591;52.742;13.650;2024-01-15T14:12:33;1.63;;;1.60;;
18917;SDS011;9591;52.742;13.650;2024-01-15T14:15:26;1.50;;;1.40;;
18917;SDS011;9591;52.742;13.650;2024-01-15T14:18:13;1.40;;;1.40;;
18917;SDS011;9591;52.742;13.650;2024-01-15T14:21:09;2.57;;;1.27;;
18917;SDS011;9591;52.742;13.650;2024-01-15T14:23:58;1.80;;;1.70;;
18917;SDS011;9591;52.742;13.650;2024-01-15T14:26:45;3.40;;;1.30;;
18917;SDS011;9591;52.742;13.650;2024-01-15T14:29:36;1.87;;;1.70;;
18917;SDS011;9591;52.742;13.650;2024-01-15T14:32:30;1.80;;;1.60;;
18917;SDS011;9591;52.742;13.650;2024-01-15T14:35:17;1.57;;;1.53;;
18917;SDS011;9591;52.742;13.650;2024-01-15T14:38:09;2.73;;;2.00;;
18917;SDS011;9591;52.742;13.650;2024-01-15T14:41:04;6.33;;;1.60;;
18917;SDS011;9591;52.742;13.650;2024-01-15T14:43:58;4.00;;;1.90;;
18917;SDS011;9591;52.742;13.650;2024-01-15T14:46:51;1.57;;;1.53;;
18917;SDS011;9591;52.742;13.650;2024-01-15T14:49:50;4.57;;;1.57;;
18917;SDS011;9591;52.742;13.650;2024-01-15T14:52:37;2.70;;;1.60;;
18917;SDS011;9591;52.742;13.650;2024-01-15T14:55:25;4.30;;;1.60;;
18917;SDS011;9591;52.742;13.650;2024-01-15T14:58:12;2.07;;;1.90;;
18917;SDS011;9591;52.742;13.650;2024-01-15T15:00:59;1.57;;;1.57;;
18917;SDS011;9591;52.742;13.650;2024-01-15T15:03:46;2.13;;;1.90;;
18917;SDS011;9591;52.742;13.650;2024-01-15T15:06:44;4.40;;;1.80;;
18917;SDS011;9591;52.742;13.650;2024-01-15T15:09:31;1.10;;;1.10;;
18917;SDS011;9591;52.742;13.650;2024-01-15T15:12:18;2.50;;;1.80;;
18917;SDS011;9591;52.742;13.650;2024-01-15T15:15:07;1.43;;;1.43;;
18917;SDS011;9591;52.742;13.650;2024-01-15T15:18:05;2.70;;;1.80;;
18917;SDS011;9591;52.742;13.650;2024-01-15T15:20:54;4.97;;;1.93;;
18917;SDS011;9591;52.742;13.650;2024-01-15T15:23:46;3.33;;;1.40;;
18917;SDS011;9591;52.742;13.650;2024-01-15T15:26:33;3.47;;;2.20;;
18917;SDS011;9591;52.742;13.650;2024-01-15T15:29:22;2.57;;;1.97;;
18917;SDS011;9591;52.742;13.650;2024-01-15T15:32:10;2.70;;;2.50;;
18917;SDS011;9591;52.742;13.650;2024-01-15T15:35:02;6.23;;;1.10;;
18917;SDS011;9591;52.742;13.650;2024-01-15T15:37:54;5.93;;;1.40;;
18917;SDS011;9591;52.742;13.650;2024-01-15T15:40:45;2.27;;;2.07;;
18917;SDS011;9591;52.742;13.650;2024-01-15T15:43:32;4.63;;;1.70;;
18917;SDS011;9591;52.742;13.650;2024-01-15T15:46:21;1.60;;;1.50;;
18917;SDS011;9591;52.742;13.650;2024-01-15T15:49:08;2.43;;;1.63;;
18917;SDS011;9591;52.742;13.650;2024-01-15T15:51:57;2.57;;;1.63;;
18917;SDS011;9591;52.742;13.650;2024-01-15T15:54:46;3.17;;;1.70;;
18917;SDS011;9591;52.742;13.650;2024-01-15T15:57:36;5.23;;;1.70;;
18917;SDS011;9591;52.742;13.650;2024-01-15T16:00:23;2.23;;;1.93;;
18917;SDS011;9591;52.742;13.650;2024-01-15T16:06:25;2.37;;;2.27;;
18917;SDS011;9591;52.742;13.650;2024-01-15T16:09:14;5.57;;;1.83;;
18917;SDS011;9591;52.742;13.650;2024-01-15T16:12:03;1.40;;;1.00;;
18917;SDS011;9591;52.742;13.650;2024-01-15T16:14:55;6.97;;;2.50;;
18917;SDS011;9591;52.742;13.650;2024-01-15T16:17:46;6.23;;;1.43;;
18917;SDS011;9591;52.742;13.650;2024-01-15T16:20:54;6.40;;;1.53;;
18917;SDS011;9591;52.742;13.650;2024-01-15T16:24:05;8.40;;;2.00;;
18917;SDS011;9591;52.742;13.650;2024-01-15T16:27:11;12.57;;;1.77;;
18917;SDS011;9591;52.742;13.650;2024-01-15T16:30:07;2.23;;;2.03;;
18917;SDS011;9591;52.742;13.650;2024-01-15T16:33:11;2.53;;;1.43;;
18917;SDS011;9591;52.742;13.650;2024-01-15T16:36:00;1.90;;;1.80;;
18917;SDS011;9591;52.742;13.650;2024-01-15T16:38:52;3.90;;;1.67;;
18917;SDS011;9591;52.742;13.650;2024-01-15T16:41:42;4.93;;;2.03;;
18917;SDS011;9591;52.742;13.650;2024-01-15T16:44:29;2.90;;;1.70;;
18917;SDS011;9591;52.742;13.650;2024-01-15T16:50:27;1.77;;;1.40;;
18917;SDS011;9591;52.742;13.650;2024-01-15T16:53:17;2.00;;;1.63;;
18917;SDS011;9591;52.742;13.650;2024-01-15T16:56:04;5.70;;;1.60;;
18917;SDS011;9591;52.742;13.650;2024-01-15T16:58:53;1.40;;;1.30;;
18917;SDS011;9591;52.742;13.650;2024-01-15T17:01:41;2.83;;;1.50;;
18917;SDS011;9591;52.742;13.650;2024-01-15T17:04:33;1.70;;;1.60;;
18917;SDS011;9591;52.742;13.650;2024-01-15T17:07:20;3.47;;;2.30;;
18917;SDS011;9591;52.742;13.650;2024-01-15T17:10:07;3.17;;;1.43;;
18917;SDS011;9591;52.742;13.650;2024-01-15T17:12:54;1.60;;;1.50;;
18917;SDS011;9591;52.742;13.650;2024-01-15T17:15:46;7.33;;;1.77;;
18917;SDS011;9591;52.742;13.650;2024-01-15T17:18:33;4.80;;;1.83;;
18917;SDS011;9591;52.742;13.650;2024-01-15T17:21:26;2.27;;;1.10;;
18917;SDS011;9591;52.742;13.650;2024-01-15T17:24:14;1.87;;;1.77;;
18917;SDS011;9591;52.742;13.650;2024-01-15T17:27:01;2.50;;;1.47;;
18917;SDS011;9591;52.742;13.650;2024-01-15T17:29:48;5.63;;;1.47;;
18917;SDS011;9591;52.742;13.650;2024-01-15T17:32:38;3.87;;;1.47;;
18917;SDS011;9591;52.742;13.650;2024-01-15T17:35:26;3.50;;;1.30;;
18917;SDS011;9591;52.742;13.650;2024-01-15T17:38:16;5.27;;;1.50;;
18917;SDS011;9591;52.742;13.650;2024-01-15T17:41:07;4.50;;;1.60;;